Ana Sayfa
METAR-TAF:

METAR-TAF

Havaalanları :

Nassau, Bahamalar

Enlem: 25-03N, Boylam: 077-28W, yükseklik: 3 m

Güncel hava durumu gözlemi

Rapor saat 09:00 UTC de 25 dakika önce yapıldı.
Rüzgar kuzeydan 6 kt
Sıcaklık 19°C
Nem 68%
Basınç 1022 hPa
Görüş mesafesi 10 km veya daha fazla
2000 ft yükseklikte parçalı bulutlu
3500 ft yükseklikte parçalı çok bulutlu

METAR: MYNN 190900Z 36006KT 9999 SCT020 BKN035 19/13 A3019

Saat: 04:25 (09:25 UTC)

Tahmin

Rapor saat 04:00 UTC de 5 saat ve 25 dakika önce yapıldı.
Ayın 19'si saat 06 UTC'den ayın 20'si saat 06 UTC'ye kadar geçerli Tahmin
Rüzgar kuzeydan 8 kt
Görüş mesafesi 10 km veya daha fazla
2000 ft yükseklikte az bulutlu
4000 ft yükseklikte parçalı çok bulutlu

TAF: MYNN 190400Z 1906/2006 36008KT 9999 FEW020 BKN040

4.000'den fazla havaalanı için hava durumu gözlemleri ve tahminleri (METAR ve TAF raporları).

Kullanılabilir istasyonlar harita üzerinde sarı ve kırmızı noktalarla gösterilir.

İstasyonun adını görmek için fareyi noktanın üzerinde gezdirin.

Sonrasında hava gözlem ve tahminlerini görmek için tıklayın.

Haritayı değiştirmek için: yaklaştırmak için siyah artı işaretli yeşil düğmeye ve uzaklaştırmak için de eksi işaretli düğmeye hızla tıklayın; bitişik haritalar için yeşil okları kullanın.


METAR-TAF: